createdAt,value
2023-02-12T00:01:20.893Z,99.80
2023-02-12T00:03:51.039Z,99.90
2023-02-12T00:06:19.596Z,99.90
2023-02-12T00:08:50.863Z,99.90
2023-02-12T00:11:21.022Z,99.90
2023-02-12T00:13:49.708Z,99.90
2023-02-12T00:16:20.194Z,99.90
2023-02-12T00:18:49.065Z,99.90
2023-02-12T00:21:18.870Z,99.90
2023-02-12T00:23:47.369Z,99.90
2023-02-12T00:26:17.434Z,99.90
2023-02-12T00:28:46.080Z,99.90
2023-02-12T00:31:16.267Z,99.90
2023-02-12T00:33:44.897Z,99.90
2023-02-12T00:36:16.147Z,99.90
2023-02-12T00:38:46.421Z,99.90
2023-02-12T00:41:15.109Z,99.90
2023-02-12T00:43:43.604Z,99.90
2023-02-12T00:46:12.306Z,99.90
2023-02-12T00:48:40.922Z,99.90
2023-02-12T00:51:09.599Z,99.90
2023-02-12T00:53:38.635Z,99.90
2023-02-12T00:56:08.584Z,99.90
2023-02-12T00:58:37.263Z,99.90
2023-02-12T01:01:05.982Z,99.90
2023-02-12T01:03:34.481Z,99.90
2023-02-12T01:06:03.085Z,99.90
2023-02-12T01:08:31.614Z,99.90
2023-02-12T01:11:01.669Z,99.90
2023-02-12T01:13:32.379Z,99.90
2023-02-12T01:16:06.740Z,99.90
2023-02-12T01:18:35.236Z,99.90
2023-02-12T01:21:04.873Z,99.90
2023-02-12T01:23:33.288Z,99.50
2023-02-12T01:26:01.745Z,98.80
2023-02-12T01:28:31.592Z,98.70
2023-02-12T01:31:00.186Z,98.90
2023-02-12T01:33:28.665Z,99.00
2023-02-12T01:35:58.041Z,99.30
2023-02-12T01:38:26.525Z,99.00
2023-02-12T01:40:54.879Z,99.30
2023-02-12T01:43:23.304Z,99.30
2023-02-12T01:45:54.855Z,99.40
2023-02-12T01:48:25.555Z,99.50
2023-02-12T01:50:54.809Z,99.60
2023-02-12T01:53:25.026Z,99.70
2023-02-12T01:55:56.718Z,99.70
2023-02-12T01:58:26.326Z,99.50
2023-02-12T02:00:56.408Z,99.80
2023-02-12T02:03:24.996Z,99.90
2023-02-12T02:05:58.045Z,99.90
2023-02-12T02:08:27.096Z,99.90
2023-02-12T02:10:55.540Z,99.90
2023-02-12T02:13:41.621Z,99.90
2023-02-12T02:16:19.268Z,99.90
2023-02-12T02:18:51.520Z,99.90
2023-02-12T02:21:42.776Z,99.90
2023-02-12T02:24:42.000Z,99.80
2023-02-12T02:27:20.827Z,99.90
2023-02-12T02:30:15.454Z,99.90
2023-02-12T02:32:56.973Z,99.90
2023-02-12T02:35:29.494Z,99.90
2023-02-12T02:38:06.913Z,99.90
2023-02-12T02:40:41.509Z,99.90
2023-02-12T02:43:12.409Z,99.90
2023-02-12T02:45:44.285Z,99.90
2023-02-12T02:48:18.913Z,99.90
2023-02-12T02:50:50.948Z,99.90
2023-02-12T02:53:22.819Z,99.90
2023-02-12T02:55:54.353Z,99.90
2023-02-12T02:58:27.155Z,99.90
2023-02-12T03:00:58.377Z,99.90
2023-02-12T03:03:31.715Z,99.90
2023-02-12T03:06:04.668Z,99.90
2023-02-12T03:08:37.608Z,99.90
2023-02-12T03:11:09.206Z,99.90
2023-02-12T03:13:40.719Z,99.90
2023-02-12T03:16:12.703Z,99.90
2023-02-12T03:18:46.361Z,99.90
2023-02-12T03:21:18.267Z,99.90
2023-02-12T03:23:52.576Z,98.90
2023-02-12T03:26:24.771Z,98.80
2023-02-12T03:28:53.231Z,98.50
2023-02-12T03:31:29.862Z,98.40
2023-02-12T03:34:08.898Z,98.70
2023-02-12T03:36:43.200Z,98.70
2023-02-12T03:39:15.257Z,98.80
2023-02-12T03:41:46.155Z,98.90
2023-02-12T03:44:22.775Z,99.90
2023-02-12T03:46:59.462Z,99.50
2023-02-12T03:49:32.660Z,99.90
2023-02-12T03:52:01.089Z,99.10
2023-02-12T03:54:29.548Z,98.80
2023-02-12T03:57:02.728Z,99.30
2023-02-12T03:59:31.597Z,99.20
2023-02-12T04:02:00.770Z,99.20
2023-02-12T04:04:30.814Z,99.30
2023-02-12T04:06:59.584Z,99.30
2023-02-12T04:09:29.067Z,99.60
2023-02-12T04:12:12.553Z,99.70
2023-02-12T04:14:45.707Z,99.90
2023-02-12T04:17:23.388Z,99.90
2023-02-12T04:20:04.760Z,99.70
2023-02-12T04:22:44.962Z,99.00
2023-02-12T04:25:22.923Z,98.90
2023-02-12T04:27:58.288Z,99.50
2023-02-12T04:30:30.754Z,99.40
2023-02-12T04:33:02.049Z,99.90
2023-02-12T04:35:34.904Z,99.60
2023-02-12T04:38:08.679Z,99.50
2023-02-12T04:40:37.785Z,99.20
2023-02-12T04:43:06.266Z,99.40
2023-02-12T04:45:36.741Z,99.40
2023-02-12T04:48:06.060Z,98.60
2023-02-12T04:50:40.483Z,98.20
2023-02-12T04:53:09.203Z,98.00
2023-02-12T04:55:37.745Z,97.80
2023-02-12T04:58:06.774Z,97.60
2023-02-12T05:00:35.213Z,97.40
2023-02-12T05:03:03.706Z,97.40
2023-02-12T05:05:32.148Z,97.30
2023-02-12T05:08:02.144Z,97.90
2023-02-12T05:10:30.638Z,97.20
2023-02-12T05:12:59.045Z,97.20
2023-02-12T05:15:27.566Z,96.80
2023-02-12T05:17:55.991Z,97.40
2023-02-12T05:20:24.399Z,97.00
2023-02-12T05:22:53.992Z,97.20
2023-02-12T05:25:23.860Z,96.80
2023-02-12T05:27:52.276Z,98.00
2023-02-12T05:30:20.937Z,97.30
2023-02-12T05:32:49.329Z,97.00
2023-02-12T05:35:17.875Z,96.60
2023-02-12T05:37:46.325Z,96.60
2023-02-12T05:40:15.669Z,96.60
2023-02-12T05:42:45.436Z,96.60
2023-02-12T05:45:13.912Z,97.40
2023-02-12T05:47:42.350Z,97.20
2023-02-12T05:50:11.517Z,96.90
2023-02-12T05:52:40.029Z,96.40
2023-02-12T05:55:09.390Z,96.90
2023-02-12T05:57:37.786Z,96.80
2023-02-12T06:00:09.741Z,96.90
2023-02-12T06:02:38.398Z,96.30
2023-02-12T06:05:07.603Z,96.40
2023-02-12T06:07:36.057Z,95.90
2023-02-12T06:10:04.532Z,95.80
2023-02-12T06:12:33.035Z,96.00
2023-02-12T06:15:01.569Z,95.60
2023-02-12T06:17:31.350Z,95.80
2023-02-12T06:19:59.789Z,96.10
2023-02-12T06:22:29.285Z,96.10
2023-02-12T06:24:57.745Z,96.00
2023-02-12T06:27:26.153Z,95.80
2023-02-12T06:29:54.627Z,96.70
2023-02-12T06:32:23.073Z,96.00
2023-02-12T06:34:55.191Z,95.90
2023-02-12T06:37:23.630Z,96.60
2023-02-12T06:39:52.042Z,97.60
2023-02-12T06:42:20.512Z,98.50
2023-02-12T06:44:51.329Z,99.50
2023-02-12T06:47:21.068Z,99.90
2023-02-12T06:49:49.533Z,99.90
2023-02-12T06:52:19.270Z,99.90
2023-02-12T06:54:47.770Z,99.90
2023-02-12T06:57:16.332Z,99.90
2023-02-12T06:59:45.121Z,99.90
2023-02-12T07:02:13.561Z,99.90
2023-02-12T07:04:42.096Z,99.90
2023-02-12T07:07:10.510Z,99.90
2023-02-12T07:09:40.350Z,99.90
2023-02-12T07:12:08.940Z,99.90
2023-02-12T07:14:37.500Z,99.90
2023-02-12T07:17:07.921Z,99.90
2023-02-12T07:19:36.514Z,99.90
2023-02-12T07:22:05.227Z,99.90
2023-02-12T07:24:33.725Z,99.90
2023-02-12T07:27:03.484Z,99.90
2023-02-12T07:29:31.954Z,99.90
2023-02-12T07:32:00.773Z,99.90
2023-02-12T07:34:29.248Z,99.90
2023-02-12T07:36:57.644Z,99.90
2023-02-12T07:39:26.196Z,99.90
2023-02-12T07:41:54.717Z,99.90
2023-02-12T07:44:24.516Z,99.90
2023-02-12T07:46:53.023Z,99.90
2023-02-12T07:49:22.890Z,99.90
2023-02-12T07:51:51.780Z,99.90
2023-02-12T07:54:20.301Z,99.90
2023-02-12T07:56:48.811Z,99.90
2023-02-12T07:59:18.477Z,99.90
2023-02-12T08:01:49.719Z,99.90
2023-02-12T08:04:19.938Z,99.90
2023-02-12T08:06:49.746Z,99.90
2023-02-12T08:09:20.446Z,99.90
2023-02-12T08:11:49.042Z,99.90
2023-02-12T08:14:19.174Z,99.90
2023-02-12T08:16:49.918Z,99.90
2023-02-12T08:19:21.940Z,99.90
2023-02-12T08:21:52.540Z,99.90
2023-02-12T08:24:22.067Z,99.90
2023-02-12T08:26:50.896Z,99.90
2023-02-12T08:29:21.080Z,99.90
2023-02-12T08:31:52.033Z,99.90
2023-02-12T08:34:23.129Z,99.90
2023-02-12T08:36:54.066Z,99.90
2023-02-12T08:39:23.008Z,99.90
2023-02-12T08:41:52.031Z,99.90
2023-02-12T08:44:20.640Z,99.90
2023-02-12T08:46:51.569Z,99.90
2023-02-12T08:49:21.768Z,99.90
2023-02-12T08:51:51.868Z,99.90
2023-02-12T08:54:22.435Z,99.90
2023-02-12T08:56:50.987Z,99.90
2023-02-12T08:59:19.511Z,99.90
2023-02-12T09:01:48.190Z,99.90
2023-02-12T09:04:21.540Z,99.90
2023-02-12T09:06:50.531Z,99.90
2023-02-12T09:09:19.680Z,99.90
2023-02-12T09:11:49.427Z,99.90
2023-02-12T09:14:24.314Z,99.90
2023-02-12T09:16:53.862Z,99.20
2023-02-12T09:19:23.941Z,99.30
2023-02-12T09:21:55.734Z,98.90
2023-02-12T09:24:25.560Z,98.30
2023-02-12T09:26:54.124Z,97.70
2023-02-12T09:29:22.542Z,97.60
2023-02-12T09:31:51.053Z,97.50
2023-02-12T09:34:19.581Z,97.30
2023-02-12T09:36:49.398Z,96.80
2023-02-12T09:39:17.967Z,96.00
2023-02-12T09:42:03.662Z,95.40
2023-02-12T09:44:38.042Z,94.40
2023-02-12T09:47:11.083Z,93.30
2023-02-12T09:49:53.545Z,92.80
2023-02-12T09:52:26.650Z,92.40
2023-02-12T09:54:55.694Z,92.20
2023-02-12T09:57:29.466Z,92.10
2023-02-12T10:00:00.198Z,91.70
2023-02-12T10:02:28.786Z,91.10
2023-02-12T10:05:01.623Z,90.90
2023-02-12T10:07:41.717Z,90.20
2023-02-12T10:10:19.806Z,89.70
2023-02-12T10:12:51.774Z,90.20
2023-02-12T10:15:33.642Z,90.20
2023-02-12T10:18:17.625Z,90.20
2023-02-12T10:21:00.998Z,90.30
2023-02-12T10:23:43.896Z,90.40
2023-02-12T10:26:20.688Z,90.70
2023-02-12T10:28:49.723Z,90.70
2023-02-12T10:31:23.424Z,89.60
2023-02-12T10:33:54.605Z,90.00
2023-02-12T10:36:32.527Z,89.70
2023-02-12T10:39:05.513Z,90.00
2023-02-12T10:41:34.457Z,89.90
2023-02-12T10:44:02.883Z,90.70
2023-02-12T10:46:32.152Z,90.50
2023-02-12T10:49:02.277Z,87.40
2023-02-12T10:51:40.316Z,89.60
2023-02-12T10:54:40.155Z,87.20
2023-02-12T10:57:18.582Z,86.00
2023-02-12T10:59:49.101Z,85.40
2023-02-12T11:02:24.287Z,87.10
2023-02-12T11:04:54.216Z,86.50
2023-02-12T11:07:23.155Z,86.40
2023-02-12T11:09:55.104Z,87.60
2023-02-12T11:12:32.272Z,89.00
2023-02-12T11:15:02.212Z,88.10
2023-02-12T11:17:35.917Z,85.50
2023-02-12T11:20:10.207Z,84.30
2023-02-12T11:22:38.586Z,84.30
2023-02-12T11:25:17.929Z,83.80
2023-02-12T11:27:46.482Z,83.90
2023-02-12T11:30:20.441Z,84.90
2023-02-12T11:32:51.678Z,84.40
2023-02-12T11:35:25.781Z,85.40
2023-02-12T11:37:56.427Z,81.90
2023-02-12T11:40:28.556Z,81.10
2023-02-12T11:42:59.325Z,81.80
2023-02-12T11:45:31.430Z,82.70
2023-02-12T11:48:00.249Z,82.30
2023-02-12T11:50:30.844Z,79.50
2023-02-12T11:53:01.695Z,79.00
2023-02-12T11:55:34.046Z,79.10
2023-02-12T11:58:06.653Z,78.80
2023-02-12T12:00:38.641Z,78.20
2023-02-12T12:03:13.930Z,79.30
2023-02-12T12:05:46.775Z,80.10
2023-02-12T12:08:20.362Z,80.40
2023-02-12T12:10:52.946Z,80.70
2023-02-12T12:13:26.058Z,80.60
2023-02-12T12:16:19.523Z,78.20
2023-02-12T12:19:07.535Z,78.10
2023-02-12T12:21:41.460Z,76.40
2023-02-12T12:24:14.860Z,75.30
2023-02-12T12:26:48.528Z,74.20
2023-02-12T12:29:22.029Z,73.20
2023-02-12T12:31:51.956Z,72.60
2023-02-12T12:34:27.746Z,71.80
2023-02-12T12:37:25.656Z,70.70
2023-02-12T12:40:09.235Z,69.70
2023-02-12T12:43:02.890Z,70.00
2023-02-12T12:45:59.600Z,69.40
2023-02-12T12:48:39.372Z,68.80
2023-02-12T12:51:18.727Z,67.40
2023-02-12T12:53:57.511Z,66.90
2023-02-12T12:56:46.876Z,67.80
2023-02-12T12:59:38.002Z,66.90
2023-02-12T13:02:52.688Z,66.70
2023-02-12T13:05:39.077Z,66.90
2023-02-12T13:08:14.745Z,66.60
2023-02-12T13:10:49.599Z,67.30
2023-02-12T13:13:27.792Z,68.60
2023-02-12T13:16:04.438Z,67.30
2023-02-12T13:18:42.730Z,66.60
2023-02-12T13:21:15.838Z,66.70
2023-02-12T13:23:49.395Z,65.80
2023-02-12T13:26:30.877Z,66.00
2023-02-12T13:29:03.229Z,66.70
2023-02-12T13:31:41.850Z,66.20
2023-02-12T13:34:15.010Z,64.80
2023-02-12T13:36:44.352Z,64.80
2023-02-12T13:39:18.021Z,64.90
2023-02-12T13:41:49.048Z,65.50
2023-02-12T13:44:21.524Z,66.00
2023-02-12T13:46:58.283Z,67.30
2023-02-12T13:49:36.368Z,67.90
2023-02-12T13:52:08.087Z,67.90
2023-02-12T13:54:46.528Z,68.80
2023-02-12T13:57:17.737Z,68.50
2023-02-12T13:59:48.092Z,66.40
2023-02-12T14:02:43.951Z,66.90
2023-02-12T14:05:28.983Z,66.70
2023-02-12T14:08:00.728Z,67.90
2023-02-12T14:10:39.989Z,66.90
2023-02-12T14:13:19.469Z,67.60
2023-02-12T14:15:51.604Z,67.30
2023-02-12T14:18:30.463Z,67.00
2023-02-12T14:21:44.181Z,69.50
2023-02-12T14:24:51.819Z,70.40
2023-02-12T14:27:36.062Z,71.00
2023-02-12T14:30:26.782Z,72.00
2023-02-12T14:33:26.328Z,71.90
2023-02-12T14:36:21.928Z,72.30
2023-02-12T14:39:01.584Z,79.60
2023-02-12T14:41:37.547Z,73.70
2023-02-12T14:44:47.023Z,73.30
2023-02-12T14:47:52.096Z,73.00
2023-02-12T14:50:28.061Z,73.00
2023-02-12T14:53:12.882Z,72.80
2023-02-12T14:55:43.680Z,73.40
2023-02-12T14:58:19.832Z,73.50
2023-02-12T15:00:49.719Z,73.80
2023-02-12T15:03:25.866Z,73.70
2023-02-12T15:06:06.308Z,73.80
2023-02-12T15:08:43.805Z,74.00
2023-02-12T15:11:21.649Z,74.10
2023-02-12T15:13:53.622Z,74.30
2023-02-12T15:16:42.939Z,73.60
2023-02-12T15:19:23.578Z,73.70
2023-02-12T15:21:54.445Z,73.90
2023-02-12T15:24:25.544Z,73.60
2023-02-12T15:26:55.503Z,73.80
2023-02-12T15:29:27.995Z,74.10
2023-02-12T15:31:58.582Z,74.40
2023-02-12T15:34:30.056Z,74.50
2023-02-12T15:37:00.175Z,74.80
2023-02-12T15:39:34.749Z,74.70
2023-02-12T15:42:03.491Z,75.00
2023-02-12T15:44:34.980Z,75.20
2023-02-12T15:47:11.961Z,75.30
2023-02-12T15:49:42.265Z,75.80
2023-02-12T15:52:17.073Z,75.90
2023-02-12T15:54:47.716Z,76.20
2023-02-12T15:57:22.524Z,77.60
2023-02-12T15:59:52.742Z,77.30
2023-02-12T16:02:23.191Z,77.70
2023-02-12T16:04:51.824Z,77.90
2023-02-12T16:07:20.988Z,78.20
2023-02-12T16:09:52.329Z,78.50
2023-02-12T16:12:23.213Z,79.10
2023-02-12T16:14:53.359Z,79.40
2023-02-12T16:17:24.558Z,80.00
2023-02-12T16:19:59.572Z,80.20
2023-02-12T16:22:32.377Z,80.60
2023-02-12T16:25:02.753Z,81.30
2023-02-12T16:27:32.417Z,82.00
2023-02-12T16:30:02.192Z,82.30
2023-02-12T16:32:35.008Z,82.90
2023-02-12T16:35:07.221Z,84.30
2023-02-12T16:37:45.562Z,86.10
2023-02-12T16:40:39.445Z,87.70
2023-02-12T16:43:26.636Z,88.10
2023-02-12T16:46:06.515Z,88.90
2023-02-12T16:48:39.804Z,89.20
2023-02-12T16:51:08.633Z,89.80
2023-02-12T16:53:47.590Z,90.20
2023-02-12T16:56:21.121Z,90.30
2023-02-12T16:58:51.432Z,91.00
2023-02-12T17:01:26.008Z,90.70
2023-02-12T17:03:55.126Z,90.90
2023-02-12T17:06:24.857Z,91.00
2023-02-12T17:08:53.444Z,90.90
2023-02-12T17:11:24.186Z,91.00
2023-02-12T17:13:54.221Z,91.00
2023-02-12T17:16:31.806Z,91.10
2023-02-12T17:19:01.722Z,91.50
2023-02-12T17:21:31.799Z,91.60
2023-02-12T17:24:00.383Z,91.80
2023-02-12T17:26:30.168Z,91.90
2023-02-12T17:29:05.223Z,92.60
2023-02-12T17:31:34.282Z,93.00
2023-02-12T17:34:03.148Z,93.00
2023-02-12T17:36:32.112Z,93.00
2023-02-12T17:39:00.827Z,93.10
2023-02-12T17:41:30.780Z,93.20
2023-02-12T17:43:59.577Z,93.10
2023-02-12T17:46:29.275Z,93.00
2023-02-12T17:48:58.398Z,93.00
2023-02-12T17:51:27.295Z,93.10
2023-02-12T17:53:55.692Z,93.30
2023-02-12T17:56:25.698Z,93.60
2023-02-12T17:58:55.580Z,93.90
2023-02-12T18:01:25.028Z,94.10
2023-02-12T18:03:55.834Z,94.30
2023-02-12T18:06:26.087Z,94.60
2023-02-12T18:08:55.391Z,94.90
2023-02-12T18:11:24.238Z,95.20
2023-02-12T18:13:55.739Z,95.60
2023-02-12T18:16:25.172Z,95.60
2023-02-12T18:18:53.777Z,95.70
2023-02-12T18:21:22.260Z,95.80
2023-02-12T18:23:50.898Z,96.10
2023-02-12T18:26:20.160Z,96.50
2023-02-12T18:28:48.918Z,96.70
2023-02-12T18:31:20.630Z,96.70
2023-02-12T18:33:49.282Z,96.70
2023-02-12T18:36:19.673Z,96.70
2023-02-12T18:38:49.551Z,96.80
2023-02-12T18:41:19.781Z,96.70
2023-02-12T18:43:48.317Z,96.70
2023-02-12T18:46:20.630Z,96.80
2023-02-12T18:48:49.916Z,97.00
2023-02-12T18:51:21.089Z,97.20
2023-02-12T18:53:49.825Z,97.60
2023-02-12T18:56:18.297Z,97.80
2023-02-12T18:58:46.905Z,98.20
2023-02-12T19:01:16.508Z,98.60
2023-02-12T19:03:46.833Z,98.70
2023-02-12T19:06:15.256Z,99.70
2023-02-12T19:08:43.848Z,99.70
2023-02-12T19:11:15.677Z,99.60
2023-02-12T19:13:44.368Z,99.60
2023-02-12T19:16:14.882Z,99.30
2023-02-12T19:18:43.590Z,99.20
2023-02-12T19:21:16.321Z,99.40
2023-02-12T19:23:44.915Z,99.50
2023-02-12T19:26:15.327Z,99.80
2023-02-12T19:28:44.238Z,99.90
2023-02-12T19:31:15.395Z,99.90
2023-02-12T19:33:44.814Z,99.90
2023-02-12T19:36:16.313Z,99.90
2023-02-12T19:38:44.924Z,99.90
2023-02-12T19:41:15.655Z,99.90
2023-02-12T19:43:44.488Z,99.90
2023-02-12T19:46:14.655Z,99.90
2023-02-12T19:48:43.392Z,99.90
2023-02-12T19:51:16.109Z,99.90
2023-02-12T19:53:45.224Z,99.90
2023-02-12T19:56:13.937Z,99.90
2023-02-12T19:58:42.560Z,99.90
2023-02-12T20:01:12.988Z,99.90
2023-02-12T20:03:41.565Z,99.90
2023-02-12T20:06:12.184Z,99.90
2023-02-12T20:08:44.037Z,99.90
2023-02-12T20:11:14.140Z,99.90
2023-02-12T20:13:43.131Z,99.90
2023-02-12T20:16:15.883Z,99.90
2023-02-12T20:18:44.580Z,99.90
2023-02-12T20:21:14.968Z,99.90
2023-02-12T20:23:44.945Z,99.90
2023-02-12T20:26:15.205Z,99.90
2023-02-12T20:28:44.154Z,99.90
2023-02-12T20:31:13.867Z,99.90
2023-02-12T20:33:42.700Z,99.90
2023-02-12T20:36:12.542Z,99.90
2023-02-12T20:38:41.574Z,99.90
2023-02-12T20:41:12.151Z,99.90
2023-02-12T20:43:40.630Z,99.90
2023-02-12T20:46:10.878Z,99.90
2023-02-12T20:48:39.342Z,99.90
2023-02-12T20:51:09.130Z,99.90
2023-02-12T20:53:38.045Z,99.90
2023-02-12T20:56:08.884Z,99.90
2023-02-12T20:58:40.475Z,99.90
2023-02-12T21:01:12.323Z,99.90
2023-02-12T21:03:41.211Z,99.90
2023-02-12T21:06:09.738Z,99.90
2023-02-12T21:08:39.066Z,99.90
2023-02-12T21:11:12.951Z,99.90
2023-02-12T21:13:50.327Z,99.90
2023-02-12T21:16:28.838Z,99.90
2023-02-12T21:18:57.580Z,99.90
2023-02-12T21:21:28.670Z,99.90
2023-02-12T21:23:58.341Z,99.90
2023-02-12T21:26:28.485Z,99.90
2023-02-12T21:29:01.190Z,99.90
2023-02-12T21:31:31.148Z,99.90
2023-02-12T21:34:00.797Z,99.90
2023-02-12T21:36:31.288Z,99.90
2023-02-12T21:39:00.140Z,99.90
2023-02-12T21:41:30.151Z,99.90
2023-02-12T21:44:03.397Z,99.90
2023-02-12T21:46:31.883Z,99.90
2023-02-12T21:49:00.597Z,99.90
2023-02-12T21:51:30.468Z,99.90
2023-02-12T21:54:00.356Z,99.90
2023-02-12T21:56:29.613Z,99.90
2023-02-12T21:59:00.000Z,99.90
2023-02-12T22:01:29.971Z,99.90
2023-02-12T22:03:58.393Z,99.90
2023-02-12T22:06:26.853Z,99.90
2023-02-12T22:08:56.265Z,99.90
2023-02-12T22:11:24.684Z,99.90
2023-02-12T22:13:53.320Z,99.90
2023-02-12T22:16:25.390Z,99.90
2023-02-12T22:18:56.129Z,99.90
2023-02-12T22:21:25.630Z,99.90
2023-02-12T22:23:54.829Z,99.90
2023-02-12T22:26:24.965Z,99.90
2023-02-12T22:28:55.393Z,99.90
2023-02-12T22:31:26.927Z,99.90
2023-02-12T22:33:57.176Z,99.90
2023-02-12T22:36:26.189Z,99.90
2023-02-12T22:38:56.368Z,99.90
2023-02-12T22:41:24.885Z,99.90
2023-02-12T22:43:53.417Z,99.90
2023-02-12T22:46:22.410Z,99.90
2023-02-12T22:48:52.190Z,99.90
2023-02-12T22:51:22.024Z,99.90
2023-02-12T22:53:50.588Z,99.90
2023-02-12T22:56:19.153Z,99.90
2023-02-12T22:58:48.086Z,99.90
2023-02-12T23:01:18.138Z,99.90
2023-02-12T23:03:47.011Z,99.90
2023-02-12T23:06:18.481Z,99.90
2023-02-12T23:08:50.703Z,99.90
2023-02-12T23:11:20.085Z,99.90
2023-02-12T23:13:48.581Z,99.90
2023-02-12T23:16:17.196Z,99.90
2023-02-12T23:18:45.761Z,99.90
2023-02-12T23:21:14.312Z,99.90
2023-02-12T23:23:44.127Z,99.90
2023-02-12T23:26:12.544Z,99.90
2023-02-12T23:28:40.968Z,99.90
2023-02-12T23:31:09.702Z,99.90
2023-02-12T23:33:38.254Z,99.90
2023-02-12T23:36:07.414Z,99.90
2023-02-12T23:38:35.820Z,99.90
2023-02-12T23:41:05.839Z,99.90
2023-02-12T23:43:34.257Z,99.90
2023-02-12T23:46:03.776Z,99.90
2023-02-12T23:48:32.312Z,99.90
2023-02-12T23:51:00.787Z,99.90
2023-02-12T23:53:29.168Z,99.90
2023-02-12T23:55:57.667Z,99.90
2023-02-12T23:58:27.479Z,99.90
